createdAt,value
2023-01-13T00:01:52.163Z,11.70
2023-01-13T00:04:54.604Z,11.70
2023-01-13T00:07:56.729Z,11.70
2023-01-13T00:10:59.001Z,11.60
2023-01-13T00:14:01.111Z,11.60
2023-01-13T00:17:04.898Z,11.60
2023-01-13T00:20:11.022Z,11.60
2023-01-13T00:23:14.878Z,11.50
2023-01-13T00:26:21.941Z,11.50
2023-01-13T00:29:24.002Z,11.50
2023-01-13T00:32:26.428Z,11.50
2023-01-13T00:35:30.513Z,11.50
2023-01-13T00:38:34.798Z,11.40
2023-01-13T00:41:55.424Z,11.40
2023-01-13T00:44:57.516Z,11.40
2023-01-13T00:48:00.506Z,11.40
2023-01-13T00:51:24.108Z,11.40
2023-01-13T00:54:26.550Z,11.30
2023-01-13T00:57:28.586Z,11.30
2023-01-13T01:00:32.266Z,11.30
2023-01-13T01:03:36.072Z,11.30
2023-01-13T01:06:38.596Z,11.30
2023-01-13T01:09:46.356Z,11.20
2023-01-13T01:12:50.983Z,11.20
2023-01-13T01:15:53.020Z,11.20
2023-01-13T01:18:55.678Z,11.20
2023-01-13T01:21:57.714Z,11.10
2023-01-13T01:25:00.128Z,11.10
2023-01-13T01:28:02.261Z,11.00
2023-01-13T01:31:14.019Z,11.10
2023-01-13T01:34:16.104Z,11.00
2023-01-13T01:37:21.322Z,11.10
2023-01-13T01:40:23.502Z,11.00
2023-01-13T01:43:59.460Z,11.00
2023-01-13T01:47:01.736Z,11.00
2023-01-13T01:50:04.947Z,11.00
2023-01-13T01:53:17.676Z,11.00
2023-01-13T01:56:20.760Z,10.90
2023-01-13T01:59:23.574Z,10.90
2023-01-13T02:02:25.724Z,10.90
2023-01-13T02:05:27.874Z,10.80
2023-01-13T02:08:30.167Z,10.70
2023-01-13T02:11:53.436Z,10.80
2023-01-13T02:15:03.753Z,10.80
2023-01-13T02:18:36.582Z,10.80
2023-01-13T02:21:59.889Z,10.80
2023-01-13T02:25:29.813Z,10.80
2023-01-13T02:29:06.746Z,10.80
2023-01-13T02:32:21.551Z,10.80
2023-01-13T02:35:44.730Z,10.90
2023-01-13T02:39:15.124Z,10.90
2023-01-13T02:42:57.031Z,11.00
2023-01-13T02:46:09.535Z,11.00
2023-01-13T02:49:18.510Z,11.10
2023-01-13T02:52:33.774Z,11.10
2023-01-13T02:55:44.358Z,11.20
2023-01-13T02:58:48.900Z,11.30
2023-01-13T03:01:53.146Z,11.30
2023-01-13T03:04:59.456Z,11.30
2023-01-13T03:08:43.472Z,11.30
2023-01-13T03:12:02.910Z,11.50
2023-01-13T03:15:15.137Z,11.50
2023-01-13T03:18:20.762Z,11.60
2023-01-13T03:21:29.096Z,11.60
2023-01-13T03:24:42.291Z,11.60
2023-01-13T03:28:11.031Z,11.70
2023-01-13T03:31:23.167Z,11.70
2023-01-13T03:34:32.148Z,11.70
2023-01-13T03:37:40.525Z,11.70
2023-01-13T03:40:50.730Z,11.60
2023-01-13T03:44:24.428Z,11.70
2023-01-13T03:47:51.283Z,11.80
2023-01-13T03:50:58.767Z,11.80
2023-01-13T03:54:09.195Z,11.80
2023-01-13T03:57:15.309Z,11.90
2023-01-13T04:00:19.909Z,11.90
2023-01-13T04:03:31.953Z,11.90
2023-01-13T04:06:42.957Z,11.90
2023-01-13T04:09:55.910Z,11.90
2023-01-13T04:13:06.684Z,11.90
2023-01-13T04:16:11.620Z,12.00
2023-01-13T04:19:13.741Z,12.00
2023-01-13T04:22:15.878Z,12.00
2023-01-13T04:25:17.999Z,12.10
2023-01-13T04:28:21.089Z,12.10
2023-01-13T04:31:24.371Z,12.10
2023-01-13T04:34:28.307Z,12.10
2023-01-13T04:37:30.674Z,12.10
2023-01-13T04:40:32.672Z,12.10
2023-01-13T04:43:34.718Z,12.20
2023-01-13T04:46:36.776Z,12.20
2023-01-13T04:49:38.876Z,12.20
2023-01-13T04:52:41.009Z,12.20
2023-01-13T04:55:44.614Z,12.20
2023-01-13T04:58:46.806Z,12.20
2023-01-13T05:01:50.971Z,12.20
2023-01-13T05:04:54.313Z,12.30
2023-01-13T05:07:58.177Z,12.30
2023-01-13T05:11:01.027Z,12.30
2023-01-13T05:14:21.569Z,12.30
2023-01-13T05:17:25.530Z,12.30
2023-01-13T05:20:27.883Z,12.30
2023-01-13T05:23:48.269Z,12.40
2023-01-13T05:26:50.621Z,12.30
2023-01-13T05:29:52.887Z,12.30
2023-01-13T05:32:56.026Z,12.30
2023-01-13T05:36:03.588Z,12.40
2023-01-13T05:39:05.602Z,12.30
2023-01-13T05:42:27.053Z,12.40
2023-01-13T05:45:32.607Z,12.40
2023-01-13T05:48:40.240Z,12.40
2023-01-13T05:51:42.380Z,12.30
2023-01-13T05:54:44.695Z,12.30
2023-01-13T05:57:46.782Z,12.30
2023-01-13T06:00:49.423Z,12.30
2023-01-13T06:03:51.468Z,12.30
2023-01-13T06:06:53.510Z,12.30
2023-01-13T06:09:55.565Z,12.30
2023-01-13T06:12:58.067Z,12.30
2023-01-13T06:16:00.518Z,12.40
2023-01-13T06:19:02.693Z,12.40
2023-01-13T06:22:40.184Z,12.50
2023-01-13T06:26:10.121Z,12.50
2023-01-13T06:29:15.426Z,12.50
2023-01-13T06:32:29.549Z,12.60
2023-01-13T06:35:35.499Z,12.50
2023-01-13T06:38:40.946Z,12.50
2023-01-13T06:42:07.821Z,12.60
2023-01-13T06:45:10.437Z,12.50
2023-01-13T06:48:12.747Z,12.60
2023-01-13T06:51:15.763Z,12.50
2023-01-13T06:54:17.906Z,12.60
2023-01-13T06:57:20.173Z,12.50
2023-01-13T07:00:23.841Z,12.50
2023-01-13T07:03:25.930Z,12.40
2023-01-13T07:06:28.896Z,12.30
2023-01-13T07:09:31.309Z,12.40
2023-01-13T07:12:53.345Z,12.30
2023-01-13T07:15:58.131Z,12.30
2023-01-13T07:19:00.278Z,12.30
2023-01-13T07:22:05.469Z,12.40
2023-01-13T07:25:08.290Z,12.40
2023-01-13T07:28:10.314Z,12.40
2023-01-13T07:31:18.273Z,12.40
2023-01-13T07:34:21.379Z,12.40
2023-01-13T07:37:26.430Z,12.50
2023-01-13T07:40:28.625Z,12.50
2023-01-13T07:43:36.598Z,12.50
2023-01-13T07:46:40.365Z,12.60
2023-01-13T07:49:42.474Z,12.60
2023-01-13T07:52:44.558Z,12.60
2023-01-13T07:55:47.078Z,12.60
2023-01-13T07:58:51.212Z,12.50
2023-01-13T08:01:53.784Z,12.60
2023-01-13T08:04:55.898Z,12.60
2023-01-13T08:07:58.030Z,12.60
2023-01-13T08:11:01.234Z,12.60
2023-01-13T08:14:03.297Z,12.50
2023-01-13T08:17:05.458Z,12.60
2023-01-13T08:20:08.303Z,12.60
2023-01-13T08:23:10.370Z,12.60
2023-01-13T08:26:17.473Z,12.80
2023-01-13T08:29:19.557Z,13.00
2023-01-13T08:32:21.717Z,13.00
2023-01-13T08:35:23.989Z,13.00
2023-01-13T08:38:26.413Z,13.00
2023-01-13T08:41:47.149Z,13.10
2023-01-13T08:44:49.346Z,13.20
2023-01-13T08:47:51.755Z,13.30
2023-01-13T08:50:54.044Z,13.50
2023-01-13T08:53:56.596Z,13.80
2023-01-13T08:56:58.934Z,14.10
2023-01-13T09:00:02.280Z,14.30
2023-01-13T09:03:05.381Z,14.60
2023-01-13T09:06:08.671Z,15.00
2023-01-13T09:09:10.875Z,15.30
2023-01-13T09:12:33.959Z,15.50
2023-01-13T09:15:36.249Z,15.60
2023-01-13T09:18:38.411Z,16.00
2023-01-13T09:21:40.711Z,16.50
2023-01-13T09:24:43.301Z,16.90
2023-01-13T09:27:45.449Z,17.80
2023-01-13T09:30:47.834Z,19.40
2023-01-13T09:34:08.439Z,21.10
2023-01-13T09:37:11.805Z,22.20
2023-01-13T09:40:22.793Z,24.00
2023-01-13T09:43:52.909Z,24.60
2023-01-13T09:47:02.756Z,24.80
2023-01-13T09:50:34.184Z,25.00
2023-01-13T09:53:44.351Z,25.20
2023-01-13T09:56:46.536Z,25.40
2023-01-13T09:59:49.302Z,25.70
2023-01-13T10:03:10.552Z,25.60
2023-01-13T10:06:34.998Z,25.10
2023-01-13T10:09:49.780Z,25.00
2023-01-13T10:13:10.416Z,25.70
2023-01-13T10:16:12.515Z,26.40
2023-01-13T10:19:18.770Z,27.50
2023-01-13T10:22:45.655Z,28.60
2023-01-13T10:26:01.007Z,29.80
2023-01-13T10:29:03.268Z,30.10
2023-01-13T10:32:05.473Z,29.40
2023-01-13T10:35:07.985Z,29.30
2023-01-13T10:38:17.986Z,29.50
2023-01-13T10:41:27.789Z,30.00
2023-01-13T10:44:30.137Z,30.20
2023-01-13T10:47:36.946Z,30.30
2023-01-13T10:50:40.114Z,30.30
2023-01-13T10:54:14.301Z,30.90
2023-01-13T10:57:21.794Z,30.70
2023-01-13T11:00:28.568Z,30.70
2023-01-13T11:03:41.770Z,31.20
2023-01-13T11:06:47.374Z,31.50
2023-01-13T11:10:09.615Z,31.60
2023-01-13T11:13:18.272Z,31.30
2023-01-13T11:16:20.825Z,30.80
2023-01-13T11:19:26.995Z,30.90
2023-01-13T11:22:34.113Z,30.30
2023-01-13T11:25:43.552Z,29.90
2023-01-13T11:29:06.289Z,29.90
2023-01-13T11:32:20.418Z,30.20
2023-01-13T11:35:24.685Z,30.20
2023-01-13T11:38:53.319Z,30.00
2023-01-13T11:42:29.636Z,29.80
2023-01-13T11:45:46.306Z,30.00
2023-01-13T11:48:48.470Z,30.20
2023-01-13T11:52:03.587Z,30.40
2023-01-13T11:55:23.137Z,29.70
2023-01-13T11:58:50.283Z,29.10
2023-01-13T12:02:22.104Z,28.00
2023-01-13T12:05:35.016Z,27.40
2023-01-13T12:08:40.342Z,25.50
2023-01-13T12:12:13.071Z,24.20
2023-01-13T12:15:21.573Z,22.90
2023-01-13T12:18:48.202Z,21.80
2023-01-13T12:22:02.187Z,21.10
2023-01-13T12:25:33.660Z,20.50
2023-01-13T12:28:56.498Z,19.90
2023-01-13T12:32:02.331Z,19.30
2023-01-13T12:35:25.622Z,19.10
2023-01-13T12:38:45.073Z,18.90
2023-01-13T12:42:25.311Z,18.70
2023-01-13T12:45:29.487Z,18.50
2023-01-13T12:49:01.767Z,18.40
2023-01-13T12:52:13.895Z,18.30
2023-01-13T12:55:19.245Z,18.20
2023-01-13T12:58:29.144Z,18.00
2023-01-13T13:01:36.121Z,17.90
2023-01-13T13:04:50.145Z,17.90
2023-01-13T13:08:07.058Z,17.90
2023-01-13T13:11:33.750Z,17.90
2023-01-13T13:14:41.512Z,17.80
2023-01-13T13:17:45.350Z,17.80
2023-01-13T13:21:03.983Z,17.80
2023-01-13T13:24:11.208Z,17.80
2023-01-13T13:27:38.366Z,17.70
2023-01-13T13:30:49.765Z,17.70
2023-01-13T13:34:40.477Z,17.70
2023-01-13T13:38:18.822Z,17.60
2023-01-13T13:41:42.030Z,17.60
2023-01-13T13:45:06.251Z,17.60
2023-01-13T13:48:31.417Z,17.60
2023-01-13T13:51:41.011Z,17.50
2023-01-13T13:54:47.710Z,17.20
2023-01-13T13:57:56.050Z,17.00
2023-01-13T14:00:59.836Z,16.80
2023-01-13T14:04:13.319Z,16.80
2023-01-13T14:07:21.698Z,16.70
2023-01-13T14:10:28.940Z,16.60
2023-01-13T14:13:31.927Z,16.70
2023-01-13T14:16:37.867Z,16.60
2023-01-13T14:19:45.760Z,16.40
2023-01-13T14:22:49.880Z,16.50
2023-01-13T14:25:52.808Z,16.40
2023-01-13T14:28:56.651Z,16.50
2023-01-13T14:31:58.848Z,16.40
2023-01-13T14:35:01.339Z,16.30
2023-01-13T14:38:04.713Z,16.30
2023-01-13T14:41:27.642Z,16.40
2023-01-13T14:44:36.100Z,16.50
2023-01-13T14:47:39.709Z,16.60
2023-01-13T14:50:47.086Z,16.40
2023-01-13T14:53:49.725Z,16.40
2023-01-13T14:56:55.639Z,16.40
2023-01-13T15:00:16.145Z,16.40
2023-01-13T15:03:20.925Z,16.50
2023-01-13T15:06:26.837Z,16.40
2023-01-13T15:09:40.140Z,16.50
2023-01-13T15:12:43.912Z,16.50
2023-01-13T15:15:51.653Z,16.50
2023-01-13T15:18:55.039Z,16.60
2023-01-13T15:21:57.275Z,16.60
2023-01-13T15:24:59.295Z,16.70
2023-01-13T15:28:01.937Z,16.60
2023-01-13T15:31:04.184Z,16.60
2023-01-13T15:34:06.396Z,16.70
2023-01-13T15:37:09.866Z,16.70
2023-01-13T15:40:16.453Z,16.80
2023-01-13T15:43:40.135Z,16.80
2023-01-13T15:46:42.714Z,16.80
2023-01-13T15:49:46.201Z,16.80
2023-01-13T15:52:48.450Z,16.80
2023-01-13T15:55:55.404Z,16.80
2023-01-13T15:58:57.843Z,16.80
2023-01-13T16:02:00.237Z,16.80
2023-01-13T16:05:04.395Z,16.80
2023-01-13T16:08:14.747Z,16.80
2023-01-13T16:11:16.953Z,16.70
2023-01-13T16:14:19.206Z,16.60
2023-01-13T16:17:24.111Z,16.50
2023-01-13T16:20:27.653Z,16.40
2023-01-13T16:23:29.772Z,16.40
2023-01-13T16:26:32.840Z,16.40
2023-01-13T16:29:35.100Z,16.30
2023-01-13T16:32:37.296Z,16.40
2023-01-13T16:36:08.984Z,16.40
2023-01-13T16:39:02.459Z,16.40
2023-01-13T16:42:07.358Z,16.30
2023-01-13T16:45:10.082Z,16.30
2023-01-13T16:48:19.945Z,16.30
2023-01-13T16:51:23.287Z,16.30
2023-01-13T16:54:25.375Z,16.20
2023-01-13T16:57:27.398Z,16.10
2023-01-13T17:00:29.899Z,16.10
2023-01-13T17:03:36.087Z,16.00
2023-01-13T17:06:58.428Z,16.00
2023-01-13T17:10:00.637Z,15.90
2023-01-13T17:13:14.752Z,15.80
2023-01-13T17:16:24.397Z,15.70
2023-01-13T17:19:26.773Z,15.60
2023-01-13T17:22:30.892Z,15.50
2023-01-13T17:25:33.002Z,15.40
2023-01-13T17:28:35.367Z,15.40
2023-01-13T17:31:37.744Z,15.40
2023-01-13T17:34:40.308Z,15.30
2023-01-13T17:37:45.200Z,15.30
2023-01-13T17:40:47.335Z,15.30
2023-01-13T17:43:49.618Z,15.20
2023-01-13T17:46:52.162Z,15.20
2023-01-13T17:49:54.332Z,15.20
2023-01-13T17:52:57.304Z,15.20
2023-01-13T17:55:59.609Z,15.20
2023-01-13T17:59:01.678Z,15.10
2023-01-13T18:02:04.867Z,15.10
2023-01-13T18:05:07.625Z,15.10
2023-01-13T18:08:09.961Z,15.00
2023-01-13T18:11:12.178Z,15.00
2023-01-13T18:14:15.756Z,15.00
2023-01-13T18:17:18.390Z,15.00
2023-01-13T18:20:39.982Z,14.90
2023-01-13T18:24:00.821Z,14.90
2023-01-13T18:27:21.492Z,14.80
2023-01-13T18:30:23.631Z,14.70
2023-01-13T18:33:25.688Z,14.80
2023-01-13T18:36:27.796Z,14.70
2023-01-13T18:39:29.847Z,14.70
2023-01-13T18:42:50.614Z,14.60
2023-01-13T18:45:54.000Z,14.60
2023-01-13T18:48:57.213Z,14.60
2023-01-13T18:51:59.371Z,14.60
2023-01-13T18:55:01.473Z,14.60
2023-01-13T18:58:03.671Z,14.60
2023-01-13T19:01:06.454Z,14.50
2023-01-13T19:04:15.457Z,14.50
2023-01-13T19:07:23.438Z,14.50
2023-01-13T19:10:31.700Z,14.50
2023-01-13T19:13:36.130Z,14.50
2023-01-13T19:16:38.343Z,14.40
2023-01-13T19:19:41.030Z,14.40
2023-01-13T19:22:43.110Z,14.40
2023-01-13T19:25:45.384Z,14.40
2023-01-13T19:28:48.643Z,14.40
2023-01-13T19:31:52.769Z,14.40
2023-01-13T19:34:55.174Z,14.40
2023-01-13T19:37:57.700Z,14.40
2023-01-13T19:41:02.628Z,14.30
2023-01-13T19:44:24.274Z,14.30
2023-01-13T19:47:26.554Z,14.30
2023-01-13T19:50:29.317Z,14.20
2023-01-13T19:53:31.886Z,14.20
2023-01-13T19:56:34.081Z,14.10
2023-01-13T19:59:40.924Z,14.10
2023-01-13T20:02:49.268Z,14.10
2023-01-13T20:05:52.351Z,14.00
2023-01-13T20:08:54.388Z,14.00
2023-01-13T20:11:56.860Z,14.00
2023-01-13T20:14:58.950Z,14.00
2023-01-13T20:18:01.523Z,14.00
2023-01-13T20:21:07.743Z,14.00
2023-01-13T20:24:17.108Z,14.00
2023-01-13T20:27:19.320Z,14.00
2023-01-13T20:30:21.810Z,13.90
2023-01-13T20:33:23.973Z,13.90
2023-01-13T20:36:31.372Z,13.90
2023-01-13T20:39:35.010Z,13.90
2023-01-13T20:42:45.195Z,13.80
2023-01-13T20:45:47.531Z,13.80
2023-01-13T20:48:49.831Z,13.70
2023-01-13T20:51:52.610Z,13.70
2023-01-13T20:54:54.705Z,13.70
2023-01-13T20:57:56.734Z,13.60
2023-01-13T21:00:59.727Z,13.70
2023-01-13T21:04:07.085Z,13.70
2023-01-13T21:07:09.621Z,13.60
2023-01-13T21:10:11.881Z,13.60
2023-01-13T21:13:34.011Z,13.60
2023-01-13T21:16:36.136Z,13.60
2023-01-13T21:19:39.148Z,13.60
2023-01-13T21:22:48.096Z,13.60
2023-01-13T21:25:50.161Z,13.60
2023-01-13T21:29:02.502Z,13.60
2023-01-13T21:32:04.968Z,13.70
2023-01-13T21:35:15.427Z,13.70
2023-01-13T21:38:17.523Z,13.70
2023-01-13T21:41:40.058Z,13.60
2023-01-13T21:45:00.796Z,13.60
2023-01-13T21:48:02.921Z,13.60
2023-01-13T21:51:05.584Z,13.60
2023-01-13T21:54:12.664Z,13.60
2023-01-13T21:57:14.687Z,13.60
2023-01-13T22:00:27.970Z,13.50
2023-01-13T22:03:30.297Z,13.60
2023-01-13T22:06:33.894Z,13.50
2023-01-13T22:09:35.964Z,13.50
2023-01-13T22:12:38.714Z,13.50
2023-01-13T22:15:40.772Z,13.50
2023-01-13T22:18:42.904Z,13.40
2023-01-13T22:21:44.983Z,13.40
2023-01-13T22:24:49.093Z,13.40
2023-01-13T22:27:52.545Z,13.40
2023-01-13T22:30:54.797Z,13.40
2023-01-13T22:33:58.123Z,13.30
2023-01-13T22:37:00.659Z,13.30
2023-01-13T22:40:04.163Z,13.30
2023-01-13T22:43:06.222Z,13.20
2023-01-13T22:46:12.661Z,13.30
2023-01-13T22:49:15.922Z,13.20
2023-01-13T22:52:18.229Z,13.20
2023-01-13T22:55:20.257Z,13.20
2023-01-13T22:58:22.848Z,13.20
2023-01-13T23:01:26.478Z,13.10
2023-01-13T23:04:28.604Z,13.10
2023-01-13T23:07:30.763Z,13.00
2023-01-13T23:10:33.084Z,13.10
2023-01-13T23:13:36.082Z,13.10
2023-01-13T23:16:40.914Z,13.00
2023-01-13T23:19:47.096Z,13.00
2023-01-13T23:22:49.233Z,13.00
2023-01-13T23:25:53.779Z,13.00
2023-01-13T23:29:00.773Z,13.00
2023-01-13T23:32:03.025Z,13.00
2023-01-13T23:35:05.744Z,13.00
2023-01-13T23:38:07.926Z,12.90
2023-01-13T23:41:14.899Z,12.90
2023-01-13T23:44:17.090Z,12.90
2023-01-13T23:47:19.387Z,12.90
2023-01-13T23:50:22.720Z,12.90
2023-01-13T23:53:25.134Z,12.90
2023-01-13T23:56:31.499Z,12.90
2023-01-13T23:59:33.822Z,12.90
